sensor_id;sensor_type;location;lat;lon;timestamp;P1;durP1;ratioP1;P2;durP2;ratioP2
62880;SDS011;48969;49.934;8.596;2023-09-07T00:01:42;6.72;;;4.50;;
62880;SDS011;48969;49.934;8.596;2023-09-07T00:04:07;6.53;;;4.70;;
62880;SDS011;48969;49.934;8.596;2023-09-07T00:06:33;5.95;;;4.88;;
62880;SDS011;48969;49.934;8.596;2023-09-07T00:08:59;5.82;;;4.65;;
62880;SDS011;48969;49.934;8.596;2023-09-07T00:11:24;7.30;;;4.45;;
62880;SDS011;48969;49.934;8.596;2023-09-07T00:13:50;5.38;;;4.88;;
62880;SDS011;48969;49.934;8.596;2023-09-07T00:16:15;6.03;;;4.70;;
62880;SDS011;48969;49.934;8.596;2023-09-07T00:22:03;6.20;;;4.60;;
62880;SDS011;48969;49.934;8.596;2023-09-07T00:24:29;5.70;;;4.45;;
62880;SDS011;48969;49.934;8.596;2023-09-07T00:26:56;6.00;;;4.43;;
62880;SDS011;48969;49.934;8.596;2023-09-07T00:29:22;5.97;;;5.38;;
62880;SDS011;48969;49.934;8.596;2023-09-07T00:31:47;6.30;;;4.85;;
62880;SDS011;48969;49.934;8.596;2023-09-07T00:34:13;5.25;;;4.40;;
62880;SDS011;48969;49.934;8.596;2023-09-07T00:36:38;5.57;;;4.90;;
62880;SDS011;48969;49.934;8.596;2023-09-07T00:39:03;5.70;;;4.57;;
62880;SDS011;48969;49.934;8.596;2023-09-07T00:41:30;4.65;;;4.00;;
62880;SDS011;48969;49.934;8.596;2023-09-07T00:43:55;5.45;;;4.88;;
62880;SDS011;48969;49.934;8.596;2023-09-07T00:46:20;5.88;;;4.47;;
62880;SDS011;48969;49.934;8.596;2023-09-07T00:48:46;5.28;;;4.35;;
62880;SDS011;48969;49.934;8.596;2023-09-07T00:51:13;6.60;;;5.03;;
62880;SDS011;48969;49.934;8.596;2023-09-07T00:53:38;6.53;;;4.55;;
62880;SDS011;48969;49.934;8.596;2023-09-07T00:56:03;5.15;;;4.63;;
62880;SDS011;48969;49.934;8.596;2023-09-07T00:58:30;6.25;;;4.65;;
62880;SDS011;48969;49.934;8.596;2023-09-07T01:00:55;6.85;;;4.70;;
62880;SDS011;48969;49.934;8.596;2023-09-07T01:03:21;6.55;;;4.78;;
62880;SDS011;48969;49.934;8.596;2023-09-07T01:05:50;6.78;;;4.68;;
62880;SDS011;48969;49.934;8.596;2023-09-07T01:08:43;5.88;;;4.47;;
62880;SDS011;48969;49.934;8.596;2023-09-07T01:11:13;5.90;;;4.93;;
62880;SDS011;48969;49.934;8.596;2023-09-07T01:13:39;6.95;;;5.13;;
62880;SDS011;48969;49.934;8.596;2023-09-07T01:16:04;5.60;;;4.40;;
62880;SDS011;48969;49.934;8.596;2023-09-07T01:18:30;6.35;;;4.80;;
62880;SDS011;48969;49.934;8.596;2023-09-07T01:20:56;5.28;;;4.57;;
62880;SDS011;48969;49.934;8.596;2023-09-07T01:23:23;6.80;;;4.75;;
62880;SDS011;48969;49.934;8.596;2023-09-07T01:25:48;5.88;;;4.50;;
62880;SDS011;48969;49.934;8.596;2023-09-07T01:28:14;6.53;;;4.57;;
62880;SDS011;48969;49.934;8.596;2023-09-07T01:30:40;5.82;;;4.57;;
62880;SDS011;48969;49.934;8.596;2023-09-07T01:33:05;6.88;;;5.47;;
62880;SDS011;48969;49.934;8.596;2023-09-07T01:35:31;5.13;;;4.63;;
62880;SDS011;48969;49.934;8.596;2023-09-07T01:37:58;5.10;;;4.57;;
62880;SDS011;48969;49.934;8.596;2023-09-07T01:40:23;5.32;;;4.82;;
62880;SDS011;48969;49.934;8.596;2023-09-07T01:42:49;5.93;;;5.07;;
62880;SDS011;48969;49.934;8.596;2023-09-07T01:45:14;6.00;;;5.20;;
62880;SDS011;48969;49.934;8.596;2023-09-07T01:47:39;8.40;;;5.30;;
62880;SDS011;48969;49.934;8.596;2023-09-07T01:50:05;5.88;;;4.65;;
62880;SDS011;48969;49.934;8.596;2023-09-07T01:52:31;6.10;;;4.97;;
62880;SDS011;48969;49.934;8.596;2023-09-07T01:54:56;6.80;;;5.15;;
62880;SDS011;48969;49.934;8.596;2023-09-07T01:57:21;7.57;;;5.10;;
62880;SDS011;48969;49.934;8.596;2023-09-07T01:59:47;7.50;;;5.15;;
62880;SDS011;48969;49.934;8.596;2023-09-07T02:02:13;7.47;;;5.55;;
62880;SDS011;48969;49.934;8.596;2023-09-07T02:04:39;5.85;;;5.03;;
62880;SDS011;48969;49.934;8.596;2023-09-07T02:07:04;6.25;;;4.88;;
62880;SDS011;48969;49.934;8.596;2023-09-07T02:09:29;6.78;;;5.10;;
62880;SDS011;48969;49.934;8.596;2023-09-07T02:11:55;7.13;;;4.97;;
62880;SDS011;48969;49.934;8.596;2023-09-07T02:14:20;6.68;;;5.13;;
62880;SDS011;48969;49.934;8.596;2023-09-07T02:16:45;8.25;;;4.80;;
62880;SDS011;48969;49.934;8.596;2023-09-07T02:19:10;6.35;;;4.97;;
62880;SDS011;48969;49.934;8.596;2023-09-07T02:21:36;6.43;;;5.65;;
62880;SDS011;48969;49.934;8.596;2023-09-07T02:24:01;6.70;;;5.05;;
62880;SDS011;48969;49.934;8.596;2023-09-07T02:26:26;5.72;;;5.13;;
62880;SDS011;48969;49.934;8.596;2023-09-07T02:28:52;6.38;;;5.00;;
62880;SDS011;48969;49.934;8.596;2023-09-07T02:31:17;6.38;;;5.20;;
62880;SDS011;48969;49.934;8.596;2023-09-07T02:33:42;7.47;;;5.53;;
62880;SDS011;48969;49.934;8.596;2023-09-07T02:36:08;8.25;;;6.13;;
62880;SDS011;48969;49.934;8.596;2023-09-07T02:38:33;7.03;;;6.15;;
62880;SDS011;48969;49.934;8.596;2023-09-07T02:40:58;7.97;;;5.93;;
62880;SDS011;48969;49.934;8.596;2023-09-07T02:43:24;7.53;;;6.18;;
62880;SDS011;48969;49.934;8.596;2023-09-07T02:45:49;8.15;;;6.00;;
62880;SDS011;48969;49.934;8.596;2023-09-07T02:48:15;8.45;;;6.60;;
62880;SDS011;48969;49.934;8.596;2023-09-07T02:50:40;10.20;;;6.88;;
62880;SDS011;48969;49.934;8.596;2023-09-07T02:53:05;6.93;;;6.20;;
62880;SDS011;48969;49.934;8.596;2023-09-07T02:55:31;7.65;;;6.63;;
62880;SDS011;48969;49.934;8.596;2023-09-07T02:57:56;7.25;;;5.80;;
62880;SDS011;48969;49.934;8.596;2023-09-07T03:00:22;8.95;;;6.70;;
62880;SDS011;48969;49.934;8.596;2023-09-07T03:02:47;7.05;;;6.00;;
62880;SDS011;48969;49.934;8.596;2023-09-07T03:05:13;8.77;;;6.45;;
62880;SDS011;48969;49.934;8.596;2023-09-07T03:07:39;7.28;;;6.15;;
62880;SDS011;48969;49.934;8.596;2023-09-07T03:10:05;7.28;;;6.25;;
62880;SDS011;48969;49.934;8.596;2023-09-07T03:12:30;7.45;;;6.38;;
62880;SDS011;48969;49.934;8.596;2023-09-07T03:14:55;8.45;;;6.10;;
62880;SDS011;48969;49.934;8.596;2023-09-07T03:17:21;7.70;;;6.93;;
62880;SDS011;48969;49.934;8.596;2023-09-07T03:19:47;8.88;;;6.63;;
62880;SDS011;48969;49.934;8.596;2023-09-07T03:22:12;7.43;;;6.47;;
62880;SDS011;48969;49.934;8.596;2023-09-07T03:24:38;7.72;;;6.18;;
62880;SDS011;48969;49.934;8.596;2023-09-07T03:27:04;7.15;;;6.38;;
62880;SDS011;48969;49.934;8.596;2023-09-07T03:29:30;7.43;;;6.15;;
62880;SDS011;48969;49.934;8.596;2023-09-07T03:31:58;7.35;;;6.65;;
62880;SDS011;48969;49.934;8.596;2023-09-07T03:34:24;8.00;;;6.45;;
62880;SDS011;48969;49.934;8.596;2023-09-07T03:36:50;7.82;;;6.32;;
62880;SDS011;48969;49.934;8.596;2023-09-07T03:39:15;6.88;;;5.90;;
62880;SDS011;48969;49.934;8.596;2023-09-07T03:41:40;7.80;;;6.57;;
62880;SDS011;48969;49.934;8.596;2023-09-07T03:44:06;10.02;;;7.20;;
62880;SDS011;48969;49.934;8.596;2023-09-07T03:46:31;8.20;;;6.85;;
62880;SDS011;48969;49.934;8.596;2023-09-07T03:48:56;7.65;;;6.43;;
62880;SDS011;48969;49.934;8.596;2023-09-07T03:51:22;7.65;;;6.82;;
62880;SDS011;48969;49.934;8.596;2023-09-07T03:53:47;7.00;;;6.10;;
62880;SDS011;48969;49.934;8.596;2023-09-07T03:56:12;7.13;;;6.35;;
62880;SDS011;48969;49.934;8.596;2023-09-07T03:58:38;8.93;;;6.43;;
62880;SDS011;48969;49.934;8.596;2023-09-07T04:01:03;6.68;;;5.75;;
62880;SDS011;48969;49.934;8.596;2023-09-07T04:03:29;7.10;;;6.25;;
62880;SDS011;48969;49.934;8.596;2023-09-07T04:05:54;6.95;;;6.13;;
62880;SDS011;48969;49.934;8.596;2023-09-07T04:08:20;8.35;;;6.85;;
62880;SDS011;48969;49.934;8.596;2023-09-07T04:10:46;8.10;;;6.50;;
62880;SDS011;48969;49.934;8.596;2023-09-07T04:13:11;7.57;;;6.00;;
62880;SDS011;48969;49.934;8.596;2023-09-07T04:15:43;7.60;;;6.50;;
62880;SDS011;48969;49.934;8.596;2023-09-07T04:18:10;8.18;;;6.65;;
62880;SDS011;48969;49.934;8.596;2023-09-07T04:20:37;6.95;;;6.13;;
62880;SDS011;48969;49.934;8.596;2023-09-07T04:23:03;6.97;;;6.00;;
62880;SDS011;48969;49.934;8.596;2023-09-07T04:25:28;7.22;;;6.10;;
62880;SDS011;48969;49.934;8.596;2023-09-07T04:27:53;6.68;;;5.97;;
62880;SDS011;48969;49.934;8.596;2023-09-07T04:30:19;7.45;;;6.18;;
62880;SDS011;48969;49.934;8.596;2023-09-07T04:32:44;7.05;;;6.35;;
62880;SDS011;48969;49.934;8.596;2023-09-07T04:35:09;10.00;;;6.25;;
62880;SDS011;48969;49.934;8.596;2023-09-07T04:37:35;8.45;;;6.30;;
62880;SDS011;48969;49.934;8.596;2023-09-07T04:40:00;8.32;;;5.90;;
62880;SDS011;48969;49.934;8.596;2023-09-07T04:42:25;7.63;;;6.13;;
62880;SDS011;48969;49.934;8.596;2023-09-07T04:44:50;9.15;;;6.40;;
62880;SDS011;48969;49.934;8.596;2023-09-07T04:47:16;7.45;;;6.47;;
62880;SDS011;48969;49.934;8.596;2023-09-07T04:49:41;2.47;;;2.05;;
62880;SDS011;48969;49.934;8.596;2023-09-07T04:52:06;7.90;;;6.25;;
62880;SDS011;48969;49.934;8.596;2023-09-07T04:54:33;8.82;;;7.25;;
62880;SDS011;48969;49.934;8.596;2023-09-07T04:56:59;9.18;;;6.72;;
62880;SDS011;48969;49.934;8.596;2023-09-07T04:59:24;7.90;;;6.40;;
62880;SDS011;48969;49.934;8.596;2023-09-07T05:01:49;7.43;;;5.70;;
62880;SDS011;48969;49.934;8.596;2023-09-07T05:04:15;8.75;;;6.85;;
62880;SDS011;48969;49.934;8.596;2023-09-07T05:06:40;7.13;;;6.43;;
62880;SDS011;48969;49.934;8.596;2023-09-07T05:09:06;7.75;;;6.20;;
62880;SDS011;48969;49.934;8.596;2023-09-07T05:11:32;8.15;;;6.75;;
62880;SDS011;48969;49.934;8.596;2023-09-07T05:14:00;7.82;;;6.65;;
62880;SDS011;48969;49.934;8.596;2023-09-07T05:16:26;6.63;;;5.72;;
62880;SDS011;48969;49.934;8.596;2023-09-07T05:18:51;8.18;;;6.32;;
62880;SDS011;48969;49.934;8.596;2023-09-07T05:21:17;7.85;;;6.47;;
62880;SDS011;48969;49.934;8.596;2023-09-07T05:23:42;8.18;;;6.57;;
62880;SDS011;48969;49.934;8.596;2023-09-07T05:26:08;7.35;;;6.65;;
62880;SDS011;48969;49.934;8.596;2023-09-07T05:28:33;7.63;;;6.18;;
62880;SDS011;48969;49.934;8.596;2023-09-07T05:30:58;9.93;;;6.85;;
62880;SDS011;48969;49.934;8.596;2023-09-07T05:33:24;7.32;;;6.40;;
62880;SDS011;48969;49.934;8.596;2023-09-07T05:35:49;9.15;;;6.25;;
62880;SDS011;48969;49.934;8.596;2023-09-07T05:38:14;7.80;;;6.72;;
62880;SDS011;48969;49.934;8.596;2023-09-07T05:40:41;8.55;;;6.40;;
62880;SDS011;48969;49.934;8.596;2023-09-07T05:43:09;8.43;;;6.30;;
62880;SDS011;48969;49.934;8.596;2023-09-07T05:45:39;8.63;;;6.60;;
62880;SDS011;48969;49.934;8.596;2023-09-07T05:48:05;7.85;;;6.75;;
62880;SDS011;48969;49.934;8.596;2023-09-07T05:50:33;8.15;;;6.40;;
62880;SDS011;48969;49.934;8.596;2023-09-07T05:52:59;10.77;;;7.10;;
62880;SDS011;48969;49.934;8.596;2023-09-07T05:55:25;7.03;;;6.25;;
62880;SDS011;48969;49.934;8.596;2023-09-07T05:57:50;7.07;;;6.38;;
62880;SDS011;48969;49.934;8.596;2023-09-07T06:00:15;7.65;;;6.68;;
62880;SDS011;48969;49.934;8.596;2023-09-07T06:02:42;7.38;;;6.55;;
62880;SDS011;48969;49.934;8.596;2023-09-07T06:05:08;7.85;;;6.22;;
62880;SDS011;48969;49.934;8.596;2023-09-07T06:07:33;7.68;;;6.70;;
62880;SDS011;48969;49.934;8.596;2023-09-07T06:09:59;7.88;;;6.38;;
62880;SDS011;48969;49.934;8.596;2023-09-07T06:12:24;10.00;;;7.18;;
62880;SDS011;48969;49.934;8.596;2023-09-07T06:14:50;9.35;;;6.38;;
62880;SDS011;48969;49.934;8.596;2023-09-07T06:17:15;7.30;;;6.30;;
62880;SDS011;48969;49.934;8.596;2023-09-07T06:19:40;8.23;;;6.10;;
62880;SDS011;48969;49.934;8.596;2023-09-07T06:22:06;9.18;;;6.80;;
62880;SDS011;48969;49.934;8.596;2023-09-07T06:24:31;8.80;;;6.90;;
62880;SDS011;48969;49.934;8.596;2023-09-07T06:26:56;6.88;;;6.18;;
62880;SDS011;48969;49.934;8.596;2023-09-07T06:29:21;6.95;;;6.10;;
62880;SDS011;48969;49.934;8.596;2023-09-07T06:31:47;7.93;;;6.03;;
62880;SDS011;48969;49.934;8.596;2023-09-07T06:34:14;7.90;;;6.20;;
62880;SDS011;48969;49.934;8.596;2023-09-07T06:36:40;7.72;;;6.10;;
62880;SDS011;48969;49.934;8.596;2023-09-07T06:39:05;7.10;;;5.72;;
62880;SDS011;48969;49.934;8.596;2023-09-07T06:41:31;7.25;;;6.22;;
62880;SDS011;48969;49.934;8.596;2023-09-07T06:43:56;6.40;;;5.80;;
62880;SDS011;48969;49.934;8.596;2023-09-07T06:46:21;7.78;;;5.97;;
62880;SDS011;48969;49.934;8.596;2023-09-07T06:48:47;6.43;;;5.80;;
62880;SDS011;48969;49.934;8.596;2023-09-07T06:51:12;7.25;;;5.50;;
62880;SDS011;48969;49.934;8.596;2023-09-07T06:53:37;6.88;;;6.18;;
62880;SDS011;48969;49.934;8.596;2023-09-07T06:56:03;8.00;;;5.55;;
62880;SDS011;48969;49.934;8.596;2023-09-07T06:58:29;7.75;;;5.10;;
62880;SDS011;48969;49.934;8.596;2023-09-07T07:00:57;6.85;;;5.80;;
62880;SDS011;48969;49.934;8.596;2023-09-07T07:03:26;6.57;;;5.13;;
62880;SDS011;48969;49.934;8.596;2023-09-07T07:05:52;6.57;;;5.40;;
62880;SDS011;48969;49.934;8.596;2023-09-07T07:08:17;6.00;;;5.18;;
62880;SDS011;48969;49.934;8.596;2023-09-07T07:10:42;5.97;;;5.38;;
62880;SDS011;48969;49.934;8.596;2023-09-07T07:13:07;5.93;;;4.97;;
62880;SDS011;48969;49.934;8.596;2023-09-07T07:15:33;5.25;;;4.75;;
62880;SDS011;48969;49.934;8.596;2023-09-07T07:18:00;7.53;;;5.68;;
62880;SDS011;48969;49.934;8.596;2023-09-07T07:20:25;5.22;;;4.72;;
62880;SDS011;48969;49.934;8.596;2023-09-07T07:22:50;6.00;;;5.32;;
62880;SDS011;48969;49.934;8.596;2023-09-07T07:25:16;5.68;;;5.13;;
62880;SDS011;48969;49.934;8.596;2023-09-07T07:27:42;5.53;;;4.82;;
62880;SDS011;48969;49.934;8.596;2023-09-07T07:30:07;5.57;;;4.97;;
62880;SDS011;48969;49.934;8.596;2023-09-07T07:32:33;10.02;;;5.30;;
62880;SDS011;48969;49.934;8.596;2023-09-07T07:34:58;6.85;;;5.10;;
62880;SDS011;48969;49.934;8.596;2023-09-07T07:37:24;6.28;;;4.90;;
62880;SDS011;48969;49.934;8.596;2023-09-07T07:39:49;6.32;;;5.20;;
62880;SDS011;48969;49.934;8.596;2023-09-07T07:42:14;7.15;;;5.35;;
62880;SDS011;48969;49.934;8.596;2023-09-07T07:44:39;6.15;;;5.28;;
62880;SDS011;48969;49.934;8.596;2023-09-07T07:47:05;5.40;;;4.85;;
62880;SDS011;48969;49.934;8.596;2023-09-07T07:49:30;5.38;;;4.85;;
62880;SDS011;48969;49.934;8.596;2023-09-07T07:51:56;5.65;;;4.90;;
62880;SDS011;48969;49.934;8.596;2023-09-07T07:54:22;5.53;;;5.00;;
62880;SDS011;48969;49.934;8.596;2023-09-07T07:56:49;5.93;;;4.75;;
62880;SDS011;48969;49.934;8.596;2023-09-07T07:59:15;6.38;;;4.90;;
62880;SDS011;48969;49.934;8.596;2023-09-07T08:01:40;5.97;;;4.28;;
62880;SDS011;48969;49.934;8.596;2023-09-07T08:04:05;5.72;;;4.65;;
62880;SDS011;48969;49.934;8.596;2023-09-07T08:06:32;6.43;;;5.22;;
62880;SDS011;48969;49.934;8.596;2023-09-07T08:08:57;7.38;;;5.25;;
62880;SDS011;48969;49.934;8.596;2023-09-07T08:11:22;6.18;;;4.78;;
62880;SDS011;48969;49.934;8.596;2023-09-07T08:13:48;7.30;;;5.25;;
62880;SDS011;48969;49.934;8.596;2023-09-07T08:16:14;5.97;;;4.95;;
62880;SDS011;48969;49.934;8.596;2023-09-07T08:18:39;7.43;;;5.63;;
62880;SDS011;48969;49.934;8.596;2023-09-07T08:21:05;7.47;;;4.97;;
62880;SDS011;48969;49.934;8.596;2023-09-07T08:23:30;7.85;;;5.32;;
62880;SDS011;48969;49.934;8.596;2023-09-07T08:25:56;5.88;;;4.88;;
62880;SDS011;48969;49.934;8.596;2023-09-07T08:28:21;5.18;;;4.68;;
62880;SDS011;48969;49.934;8.596;2023-09-07T08:30:48;6.10;;;4.78;;
62880;SDS011;48969;49.934;8.596;2023-09-07T08:33:16;5.13;;;4.63;;
62880;SDS011;48969;49.934;8.596;2023-09-07T08:35:42;6.68;;;5.28;;
62880;SDS011;48969;49.934;8.596;2023-09-07T08:38:11;6.25;;;4.75;;
62880;SDS011;48969;49.934;8.596;2023-09-07T08:40:38;5.00;;;4.50;;
62880;SDS011;48969;49.934;8.596;2023-09-07T08:43:05;6.78;;;5.25;;
62880;SDS011;48969;49.934;8.596;2023-09-07T08:45:36;7.80;;;5.30;;
62880;SDS011;48969;49.934;8.596;2023-09-07T08:48:06;6.13;;;5.10;;
62880;SDS011;48969;49.934;8.596;2023-09-07T08:50:33;5.60;;;4.50;;
62880;SDS011;48969;49.934;8.596;2023-09-07T08:52:59;6.70;;;5.20;;
62880;SDS011;48969;49.934;8.596;2023-09-07T08:55:24;5.72;;;4.88;;
62880;SDS011;48969;49.934;8.596;2023-09-07T08:57:50;5.18;;;4.68;;
62880;SDS011;48969;49.934;8.596;2023-09-07T09:00:16;6.35;;;5.00;;
62880;SDS011;48969;49.934;8.596;2023-09-07T09:02:42;6.13;;;5.38;;
62880;SDS011;48969;49.934;8.596;2023-09-07T09:05:09;5.50;;;4.65;;
62880;SDS011;48969;49.934;8.596;2023-09-07T09:07:35;7.82;;;4.70;;
62880;SDS011;48969;49.934;8.596;2023-09-07T09:10:05;5.40;;;4.90;;
62880;SDS011;48969;49.934;8.596;2023-09-07T09:12:31;6.10;;;4.60;;
62880;SDS011;48969;49.934;8.596;2023-09-07T09:14:58;5.82;;;4.43;;
62880;SDS011;48969;49.934;8.596;2023-09-07T09:17:25;5.60;;;4.60;;
62880;SDS011;48969;49.934;8.596;2023-09-07T09:19:50;6.05;;;4.57;;
62880;SDS011;48969;49.934;8.596;2023-09-07T09:22:15;6.82;;;4.43;;
62880;SDS011;48969;49.934;8.596;2023-09-07T09:24:41;6.18;;;4.50;;
62880;SDS011;48969;49.934;8.596;2023-09-07T09:27:06;5.72;;;4.20;;
62880;SDS011;48969;49.934;8.596;2023-09-07T09:29:34;5.03;;;4.50;;
62880;SDS011;48969;49.934;8.596;2023-09-07T09:32:02;5.03;;;4.50;;
62880;SDS011;48969;49.934;8.596;2023-09-07T09:34:30;7.05;;;4.57;;
62880;SDS011;48969;49.934;8.596;2023-09-07T09:36:57;5.47;;;4.47;;
62880;SDS011;48969;49.934;8.596;2023-09-07T09:39:23;5.45;;;4.95;;
62880;SDS011;48969;49.934;8.596;2023-09-07T09:41:49;5.53;;;4.55;;
62880;SDS011;48969;49.934;8.596;2023-09-07T09:44:15;5.03;;;4.30;;
62880;SDS011;48969;49.934;8.596;2023-09-07T09:46:41;5.45;;;4.95;;
62880;SDS011;48969;49.934;8.596;2023-09-07T09:49:08;7.30;;;4.80;;
62880;SDS011;48969;49.934;8.596;2023-09-07T09:51:36;5.82;;;4.68;;
62880;SDS011;48969;49.934;8.596;2023-09-07T09:54:03;5.75;;;4.38;;
62880;SDS011;48969;49.934;8.596;2023-09-07T09:56:29;6.32;;;4.13;;
62880;SDS011;48969;49.934;8.596;2023-09-07T09:58:55;5.82;;;4.25;;
62880;SDS011;48969;49.934;8.596;2023-09-07T10:01:20;5.07;;;4.35;;
62880;SDS011;48969;49.934;8.596;2023-09-07T10:03:47;4.95;;;4.20;;
62880;SDS011;48969;49.934;8.596;2023-09-07T10:06:18;5.20;;;4.03;;
62880;SDS011;48969;49.934;8.596;2023-09-07T10:08:52;5.28;;;4.60;;
62880;SDS011;48969;49.934;8.596;2023-09-07T10:11:30;5.38;;;4.05;;
62880;SDS011;48969;49.934;8.596;2023-09-07T10:13:57;4.40;;;4.00;;
62880;SDS011;48969;49.934;8.596;2023-09-07T10:16:24;4.65;;;4.10;;
62880;SDS011;48969;49.934;8.596;2023-09-07T10:18:49;5.75;;;4.20;;
62880;SDS011;48969;49.934;8.596;2023-09-07T10:21:14;4.88;;;4.05;;
62880;SDS011;48969;49.934;8.596;2023-09-07T10:26:17;4.80;;;4.30;;
62880;SDS011;48969;49.934;8.596;2023-09-07T10:28:44;4.97;;;4.28;;
62880;SDS011;48969;49.934;8.596;2023-09-07T10:31:13;4.93;;;4.43;;
62880;SDS011;48969;49.934;8.596;2023-09-07T10:33:39;5.45;;;3.90;;
62880;SDS011;48969;49.934;8.596;2023-09-07T10:36:04;4.30;;;3.80;;
62880;SDS011;48969;49.934;8.596;2023-09-07T10:38:31;5.18;;;4.35;;
62880;SDS011;48969;49.934;8.596;2023-09-07T10:40:57;5.07;;;4.10;;
62880;SDS011;48969;49.934;8.596;2023-09-07T10:43:25;5.68;;;4.38;;
62880;SDS011;48969;49.934;8.596;2023-09-07T10:45:55;5.60;;;4.07;;
62880;SDS011;48969;49.934;8.596;2023-09-07T10:48:21;4.70;;;4.20;;
62880;SDS011;48969;49.934;8.596;2023-09-07T10:50:48;4.97;;;4.30;;
62880;SDS011;48969;49.934;8.596;2023-09-07T10:53:23;6.30;;;4.22;;
62880;SDS011;48969;49.934;8.596;2023-09-07T10:55:50;5.88;;;4.32;;
62880;SDS011;48969;49.934;8.596;2023-09-07T10:58:37;5.22;;;4.72;;
62880;SDS011;48969;49.934;8.596;2023-09-07T11:01:07;4.70;;;4.18;;
62880;SDS011;48969;49.934;8.596;2023-09-07T11:03:34;5.32;;;4.10;;
62880;SDS011;48969;49.934;8.596;2023-09-07T11:08:28;6.60;;;3.92;;
62880;SDS011;48969;49.934;8.596;2023-09-07T11:10:54;4.35;;;3.92;;
62880;SDS011;48969;49.934;8.596;2023-09-07T11:13:21;5.18;;;4.00;;
62880;SDS011;48969;49.934;8.596;2023-09-07T11:15:46;4.43;;;3.80;;
62880;SDS011;48969;49.934;8.596;2023-09-07T11:18:12;4.53;;;3.78;;
62880;SDS011;48969;49.934;8.596;2023-09-07T11:20:38;4.75;;;4.25;;
62880;SDS011;48969;49.934;8.596;2023-09-07T11:23:06;6.22;;;3.90;;
62880;SDS011;48969;49.934;8.596;2023-09-07T11:25:35;5.68;;;4.38;;
62880;SDS011;48969;49.934;8.596;2023-09-07T11:28:02;4.13;;;3.72;;
62880;SDS011;48969;49.934;8.596;2023-09-07T11:30:28;5.15;;;4.25;;
62880;SDS011;48969;49.934;8.596;2023-09-07T11:33:07;4.57;;;4.15;;
62880;SDS011;48969;49.934;8.596;2023-09-07T11:35:33;4.47;;;4.05;;
62880;SDS011;48969;49.934;8.596;2023-09-07T11:38:00;4.95;;;4.45;;
62880;SDS011;48969;49.934;8.596;2023-09-07T11:40:26;4.90;;;3.90;;
62880;SDS011;48969;49.934;8.596;2023-09-07T11:42:51;4.80;;;3.90;;
62880;SDS011;48969;49.934;8.596;2023-09-07T11:45:17;5.97;;;4.32;;
62880;SDS011;48969;49.934;8.596;2023-09-07T11:47:43;5.95;;;4.32;;
62880;SDS011;48969;49.934;8.596;2023-09-07T11:50:09;4.93;;;4.43;;
62880;SDS011;48969;49.934;8.596;2023-09-07T11:52:35;5.22;;;4.20;;
62880;SDS011;48969;49.934;8.596;2023-09-07T11:55:00;5.32;;;4.32;;
62880;SDS011;48969;49.934;8.596;2023-09-07T11:57:27;5.38;;;3.90;;
62880;SDS011;48969;49.934;8.596;2023-09-07T11:59:52;5.07;;;4.40;;
62880;SDS011;48969;49.934;8.596;2023-09-07T12:02:17;5.88;;;3.78;;
62880;SDS011;48969;49.934;8.596;2023-09-07T12:04:46;4.90;;;4.40;;
62880;SDS011;48969;49.934;8.596;2023-09-07T12:07:11;4.85;;;4.30;;
62880;SDS011;48969;49.934;8.596;2023-09-07T12:09:37;4.57;;;4.00;;
62880;SDS011;48969;49.934;8.596;2023-09-07T12:12:03;8.07;;;4.05;;
62880;SDS011;48969;49.934;8.596;2023-09-07T12:14:28;5.13;;;4.03;;
62880;SDS011;48969;49.934;8.596;2023-09-07T12:16:54;6.18;;;4.10;;
62880;SDS011;48969;49.934;8.596;2023-09-07T12:19:19;6.07;;;4.30;;
62880;SDS011;48969;49.934;8.596;2023-09-07T12:21:44;4.50;;;4.10;;
62880;SDS011;48969;49.934;8.596;2023-09-07T12:24:10;6.45;;;3.88;;
62880;SDS011;48969;49.934;8.596;2023-09-07T12:26:37;4.30;;;3.88;;
62880;SDS011;48969;49.934;8.596;2023-09-07T12:29:02;5.38;;;4.07;;
62880;SDS011;48969;49.934;8.596;2023-09-07T12:31:29;4.68;;;3.90;;
62880;SDS011;48969;49.934;8.596;2023-09-07T12:33:56;5.75;;;4.18;;
62880;SDS011;48969;49.934;8.596;2023-09-07T12:36:22;4.78;;;3.80;;
62880;SDS011;48969;49.934;8.596;2023-09-07T12:38:47;6.82;;;4.57;;
62880;SDS011;48969;49.934;8.596;2023-09-07T12:41:12;3.97;;;3.55;;
62880;SDS011;48969;49.934;8.596;2023-09-07T12:43:38;4.85;;;4.10;;
62880;SDS011;48969;49.934;8.596;2023-09-07T12:46:03;5.10;;;3.75;;
62880;SDS011;48969;49.934;8.596;2023-09-07T12:48:29;4.82;;;3.75;;
62880;SDS011;48969;49.934;8.596;2023-09-07T12:50:54;3.88;;;3.47;;
62880;SDS011;48969;49.934;8.596;2023-09-07T12:53:20;4.60;;;3.63;;
62880;SDS011;48969;49.934;8.596;2023-09-07T12:55:50;5.97;;;3.67;;
62880;SDS011;48969;49.934;8.596;2023-09-07T12:58:17;5.10;;;3.80;;
62880;SDS011;48969;49.934;8.596;2023-09-07T13:00:42;5.45;;;4.30;;
62880;SDS011;48969;49.934;8.596;2023-09-07T13:03:07;4.63;;;4.10;;
62880;SDS011;48969;49.934;8.596;2023-09-07T13:05:33;5.75;;;4.10;;
62880;SDS011;48969;49.934;8.596;2023-09-07T13:07:58;5.00;;;4.18;;
62880;SDS011;48969;49.934;8.596;2023-09-07T13:10:24;4.88;;;3.85;;
62880;SDS011;48969;49.934;8.596;2023-09-07T13:12:50;4.05;;;3.40;;
62880;SDS011;48969;49.934;8.596;2023-09-07T13:15:15;4.88;;;3.65;;
62880;SDS011;48969;49.934;8.596;2023-09-07T13:17:40;4.43;;;3.50;;
62880;SDS011;48969;49.934;8.596;2023-09-07T13:20:06;5.00;;;3.90;;
62880;SDS011;48969;49.934;8.596;2023-09-07T13:22:32;5.90;;;4.00;;
62880;SDS011;48969;49.934;8.596;2023-09-07T13:24:57;4.07;;;3.67;;
62880;SDS011;48969;49.934;8.596;2023-09-07T13:27:22;8.18;;;3.92;;
62880;SDS011;48969;49.934;8.596;2023-09-07T13:29:50;6.03;;;3.65;;
62880;SDS011;48969;49.934;8.596;2023-09-07T13:32:15;4.10;;;3.70;;
62880;SDS011;48969;49.934;8.596;2023-09-07T13:34:41;4.05;;;3.63;;
62880;SDS011;48969;49.934;8.596;2023-09-07T13:37:07;4.45;;;3.80;;
62880;SDS011;48969;49.934;8.596;2023-09-07T13:39:32;4.45;;;3.25;;
62880;SDS011;48969;49.934;8.596;2023-09-07T13:41:57;6.13;;;4.10;;
62880;SDS011;48969;49.934;8.596;2023-09-07T13:44:23;5.43;;;4.10;;
62880;SDS011;48969;49.934;8.596;2023-09-07T13:46:48;5.50;;;3.58;;
62880;SDS011;48969;49.934;8.596;2023-09-07T13:49:14;5.57;;;4.13;;
62880;SDS011;48969;49.934;8.596;2023-09-07T13:51:42;4.53;;;3.70;;
62880;SDS011;48969;49.934;8.596;2023-09-07T13:54:08;3.88;;;3.47;;
62880;SDS011;48969;49.934;8.596;2023-09-07T13:56:34;4.25;;;3.55;;
62880;SDS011;48969;49.934;8.596;2023-09-07T13:59:01;5.38;;;3.60;;
62880;SDS011;48969;49.934;8.596;2023-09-07T14:01:26;4.07;;;3.55;;
62880;SDS011;48969;49.934;8.596;2023-09-07T14:03:51;4.13;;;3.08;;
62880;SDS011;48969;49.934;8.596;2023-09-07T14:06:17;3.63;;;3.25;;
62880;SDS011;48969;49.934;8.596;2023-09-07T14:08:43;4.25;;;3.40;;
62880;SDS011;48969;49.934;8.596;2023-09-07T14:11:10;4.97;;;3.60;;
62880;SDS011;48969;49.934;8.596;2023-09-07T14:13:37;4.65;;;3.88;;
62880;SDS011;48969;49.934;8.596;2023-09-07T14:16:03;3.90;;;3.50;;
62880;SDS011;48969;49.934;8.596;2023-09-07T14:18:29;5.43;;;3.40;;
62880;SDS011;48969;49.934;8.596;2023-09-07T14:20:54;5.75;;;3.90;;
62880;SDS011;48969;49.934;8.596;2023-09-07T14:23:23;4.45;;;3.45;;
62880;SDS011;48969;49.934;8.596;2023-09-07T14:25:50;3.95;;;3.33;;
62880;SDS011;48969;49.934;8.596;2023-09-07T14:28:16;3.75;;;3.33;;
62880;SDS011;48969;49.934;8.596;2023-09-07T14:30:41;4.72;;;3.67;;
62880;SDS011;48969;49.934;8.596;2023-09-07T14:33:07;5.13;;;3.63;;
62880;SDS011;48969;49.934;8.596;2023-09-07T14:35:32;4.57;;;3.53;;
62880;SDS011;48969;49.934;8.596;2023-09-07T14:37:57;4.70;;;3.65;;
62880;SDS011;48969;49.934;8.596;2023-09-07T14:40:22;4.18;;;3.28;;
62880;SDS011;48969;49.934;8.596;2023-09-07T14:42:49;3.92;;;3.17;;
62880;SDS011;48969;49.934;8.596;2023-09-07T14:45:15;4.22;;;3.17;;
62880;SDS011;48969;49.934;8.596;2023-09-07T14:47:41;4.97;;;3.50;;
62880;SDS011;48969;49.934;8.596;2023-09-07T14:50:08;4.70;;;3.50;;